Time;durP1;ratioP1;P1;durP2;ratioP2;P2;SDS_P1;SDS_P2;PMS_P1;PMS_P2;Temp;Humidity;BMP_temperature;BMP_pressure;BME280_temperature;BME280_humidity;BME280_pressure;Samples;Min_cycle;Max_cycle;Signal;HPM_P1;HPM_P2
2021/07/04 00:01:56;;;;;;;19.88;17.17;;;;;;;;;;4991055;28;20201;-73
2021/07/04 00:04:21;;;;;;;21.13;18.48;;;;;;;;;;4990325;28;20183;-73
2021/07/04 00:06:47;;;;;;;27.30;21.43;;;;;;;;;;4992725;28;20208;-73
2021/07/04 00:09:12;;;;;;;29.08;22.70;;;;;;;;;;4991779;28;20445;-73
2021/07/04 00:11:37;;;;;;;36.40;27.47;;;;;;;;;;4989831;28;20275;-73
2021/07/04 00:14:02;;;;;;;30.75;26.33;;;;;;;;;;4992363;28;20444;-73
2021/07/04 00:16:27;;;;;;;39.15;30.30;;;;;;;;;;4991110;28;20234;-73
2021/07/04 00:18:53;;;;;;;34.60;26.05;;;;;;;;;;4985994;28;20182;-73
2021/07/04 00:21:18;;;;;;;31.27;25.08;;;;;;;;;;4988607;28;20215;-71
2021/07/04 00:23:43;;;;;;;34.58;26.83;;;;;;;;;;4987362;28;20175;-71
2021/07/04 00:26:08;;;;;;;38.60;28.83;;;;;;;;;;4991237;28;20199;-71
2021/07/04 00:28:33;;;;;;;33.45;26.83;;;;;;;;;;4991937;28;20207;-71
2021/07/04 00:30:59;;;;;;;32.17;28.00;;;;;;;;;;4990772;28;20195;-70
2021/07/04 00:33:24;;;;;;;31.90;26.77;;;;;;;;;;4974101;28;20192;-71
2021/07/04 00:35:50;;;;;;;36.20;28.70;;;;;;;;;;4993120;28;20172;-71
2021/07/04 00:38:15;;;;;;;34.35;27.15;;;;;;;;;;4984779;28;20179;-70
2021/07/04 00:40:42;;;;;;;36.72;27.67;;;;;;;;;;4988870;28;20630;-71
2021/07/04 00:43:08;;;;;;;35.25;29.40;;;;;;;;;;4965872;28;20670;-70
2021/07/04 00:45:33;;;;;;;39.03;27.83;;;;;;;;;;4993192;28;20251;-71
2021/07/04 00:47:58;;;;;;;38.88;28.50;;;;;;;;;;4991135;28;20211;-71
2021/07/04 00:50:25;;;;;;;31.75;27.70;;;;;;;;;;4992346;28;20195;-71
2021/07/04 00:52:51;;;;;;;31.58;26.77;;;;;;;;;;4993231;28;20176;-71
2021/07/04 00:55:17;;;;;;;30.90;25.17;;;;;;;;;;4992091;28;20702;-71
2021/07/04 00:57:43;;;;;;;28.67;24.77;;;;;;;;;;4987754;28;20183;-71
2021/07/04 01:00:09;;;;;;;29.00;24.17;;;;;;;;;;4989003;28;20180;-71
2021/07/04 01:02:34;;;;;;;27.88;24.40;;;;;;;;;;4987665;28;20199;-71
2021/07/04 01:05:00;;;;;;;27.90;24.33;;;;;;;;;;4988812;28;20219;-71
2021/07/04 01:07:25;;;;;;;27.88;24.33;;;;;;;;;;4988700;28;20480;-71
2021/07/04 01:09:50;;;;;;;29.88;24.08;;;;;;;;;;4987419;28;20180;-71
2021/07/04 01:12:15;;;;;;;27.45;23.27;;;;;;;;;;4988498;28;20851;-71
2021/07/04 01:14:41;;;;;;;27.80;22.67;;;;;;;;;;4987978;28;20326;-71
2021/07/04 01:17:06;;;;;;;30.33;24.88;;;;;;;;;;4989406;28;20191;-71
2021/07/04 01:19:31;;;;;;;31.60;23.77;;;;;;;;;;4986192;28;20680;-71
2021/07/04 01:21:57;;;;;;;27.83;24.20;;;;;;;;;;4987994;28;20704;-71
2021/07/04 01:24:23;;;;;;;30.60;24.92;;;;;;;;;;4989226;28;20456;-71
2021/07/04 01:26:48;;;;;;;28.60;22.10;;;;;;;;;;4992277;28;20206;-70
2021/07/04 01:29:13;;;;;;;24.13;21.52;;;;;;;;;;4989100;28;20722;-71
2021/07/04 01:31:39;;;;;;;32.08;23.02;;;;;;;;;;4971336;28;20253;-70
2021/07/04 01:34:04;;;;;;;25.52;21.92;;;;;;;;;;4985970;28;20711;-71
2021/07/04 01:36:29;;;;;;;26.58;21.83;;;;;;;;;;4989540;28;20172;-71
2021/07/04 01:38:55;;;;;;;28.08;22.67;;;;;;;;;;4989885;28;20187;-71
2021/07/04 01:41:20;;;;;;;28.52;23.45;;;;;;;;;;4989167;28;20202;-72
2021/07/04 01:43:45;;;;;;;24.75;21.13;;;;;;;;;;4987215;28;20204;-71
2021/07/04 01:46:10;;;;;;;22.38;19.85;;;;;;;;;;4989186;28;20234;-74
2021/07/04 01:48:36;;;;;;;28.95;23.02;;;;;;;;;;4994006;28;20281;-72
2021/07/04 01:51:01;;;;;;;28.83;23.73;;;;;;;;;;4989846;28;20192;-72
2021/07/04 01:53:26;;;;;;;28.95;23.17;;;;;;;;;;4996150;28;20180;-71
2021/07/04 01:55:52;;;;;;;29.83;23.50;;;;;;;;;;4990510;28;20768;-74
2021/07/04 01:58:17;;;;;;;28.90;24.05;;;;;;;;;;4991201;28;20226;-70
2021/07/04 02:00:43;;;;;;;30.00;25.10;;;;;;;;;;4990779;28;20250;-71
2021/07/04 02:03:09;;;;;;;28.77;23.52;;;;;;;;;;4972245;28;20610;-71
2021/07/04 02:05:34;;;;;;;27.85;24.02;;;;;;;;;;4982432;28;20188;-72
2021/07/04 02:07:59;;;;;;;30.17;25.42;;;;;;;;;;4989299;28;20207;-72
2021/07/04 02:10:26;;;;;;;29.70;24.97;;;;;;;;;;4991444;28;20668;-72
2021/07/04 02:12:52;;;;;;;30.67;25.50;;;;;;;;;;4986308;28;20421;-70
2021/07/04 02:15:18;;;;;;;30.73;25.08;;;;;;;;;;4991491;28;20531;-72
2021/07/04 02:17:44;;;;;;;34.13;25.63;;;;;;;;;;4987724;28;20207;-71
2021/07/04 02:20:19;;;;;;;30.60;25.73;;;;;;;;;;4986164;28;20318;-72
2021/07/04 02:22:45;;;;;;;32.15;26.35;;;;;;;;;;4989974;28;20190;-71
2021/07/04 02:25:10;;;;;;;29.15;24.67;;;;;;;;;;4987695;28;20175;-71
2021/07/04 02:27:35;;;;;;;31.88;26.02;;;;;;;;;;4989727;28;20195;-72
2021/07/04 02:30:00;;;;;;;30.08;25.63;;;;;;;;;;4993004;28;20183;-71
2021/07/04 02:32:26;;;;;;;29.70;24.38;;;;;;;;;;4988130;28;20192;-72
2021/07/04 02:34:51;;;;;;;31.47;25.73;;;;;;;;;;4989374;28;20176;-70
2021/07/04 02:37:16;;;;;;;33.38;26.77;;;;;;;;;;4989617;28;20679;-72
2021/07/04 02:39:41;;;;;;;33.00;26.00;;;;;;;;;;4985131;28;20190;-71
2021/07/04 02:42:06;;;;;;;31.65;25.77;;;;;;;;;;4987577;28;21004;-72
2021/07/04 02:44:31;;;;;;;34.03;26.80;;;;;;;;;;4985796;28;20191;-72
2021/07/04 02:46:57;;;;;;;33.53;26.92;;;;;;;;;;4991976;28;20211;-72
2021/07/04 02:49:22;;;;;;;35.50;28.30;;;;;;;;;;4991286;28;20637;-72
2021/07/04 02:51:47;;;;;;;34.43;26.83;;;;;;;;;;4991077;28;20496;-72
2021/07/04 02:54:12;;;;;;;37.53;28.23;;;;;;;;;;4980854;28;20805;-72
2021/07/04 02:56:37;;;;;;;32.83;26.73;;;;;;;;;;4993273;28;20176;-73
2021/07/04 02:59:03;;;;;;;33.85;27.67;;;;;;;;;;4992250;28;20211;-72
2021/07/04 03:01:28;;;;;;;34.15;27.67;;;;;;;;;;4993642;28;20695;-72
2021/07/04 03:03:53;;;;;;;36.20;28.25;;;;;;;;;;4993002;28;20171;-71
2021/07/04 03:06:18;;;;;;;33.40;27.02;;;;;;;;;;4975926;28;20183;-71
2021/07/04 03:08:44;;;;;;;36.47;29.10;;;;;;;;;;4992508;28;20265;-72
2021/07/04 03:11:10;;;;;;;36.55;28.25;;;;;;;;;;4992782;28;20684;-72
2021/07/04 03:13:35;;;;;;;38.38;28.23;;;;;;;;;;4992778;28;20245;-71
2021/07/04 03:16:00;;;;;;;38.00;27.70;;;;;;;;;;4992687;28;20709;-71
2021/07/04 03:18:25;;;;;;;37.60;28.73;;;;;;;;;;4992091;28;20675;-71
2021/07/04 03:20:51;;;;;;;44.38;30.02;;;;;;;;;;4989813;28;20468;-71
2021/07/04 03:23:16;;;;;;;42.97;31.20;;;;;;;;;;4991976;28;20184;-72
2021/07/04 03:25:42;;;;;;;42.90;29.15;;;;;;;;;;4974480;28;20180;-72
2021/07/04 03:28:07;;;;;;;49.55;33.47;;;;;;;;;;4990938;28;20203;-71
2021/07/04 03:30:32;;;;;;;46.10;32.78;;;;;;;;;;4994884;28;20700;-72
2021/07/04 03:32:57;;;;;;;55.13;34.70;;;;;;;;;;4990445;28;20262;-72
2021/07/04 03:35:22;;;;;;;48.47;33.63;;;;;;;;;;4985572;28;20428;-72
2021/07/04 03:37:47;;;;;;;51.58;34.58;;;;;;;;;;4991698;28;20680;-70
2021/07/04 03:40:14;;;;;;;44.83;32.85;;;;;;;;;;4974868;28;20192;-71
2021/07/04 03:42:40;;;;;;;50.35;33.22;;;;;;;;;;4988295;28;20179;-71
2021/07/04 03:45:05;;;;;;;58.15;34.80;;;;;;;;;;4992365;28;20191;-73
2021/07/04 03:47:30;;;;;;;52.05;33.88;;;;;;;;;;4992531;28;20208;-72
2021/07/04 03:49:56;;;;;;;50.72;34.88;;;;;;;;;;4990083;28;20190;-73
2021/07/04 03:52:21;;;;;;;46.13;33.10;;;;;;;;;;4974977;28;20195;-71
2021/07/04 03:54:47;;;;;;;54.92;35.53;;;;;;;;;;4976460;28;20183;-73
2021/07/04 03:57:21;;;;;;;60.90;38.63;;;;;;;;;;4992631;28;20202;-72
2021/07/04 03:59:47;;;;;;;58.85;36.70;;;;;;;;;;4975486;28;20192;-72
2021/07/04 04:02:13;;;;;;;66.65;38.72;;;;;;;;;;4998957;28;20282;-72
2021/07/04 04:04:38;;;;;;;58.67;36.97;;;;;;;;;;4990562;28;20727;-70
2021/07/04 04:07:03;;;;;;;54.67;35.37;;;;;;;;;;4990851;28;20425;-72
2021/07/04 04:09:28;;;;;;;60.93;37.23;;;;;;;;;;4988577;28;21060;-73
2021/07/04 04:11:53;;;;;;;62.30;37.00;;;;;;;;;;4974086;28;20421;-72
2021/07/04 04:14:19;;;;;;;63.15;38.97;;;;;;;;;;4989198;28;21013;-72
2021/07/04 04:16:44;;;;;;;55.65;35.55;;;;;;;;;;4973154;28;20727;-72
2021/07/04 04:19:09;;;;;;;69.60;39.90;;;;;;;;;;4988150;28;20196;-70
2021/07/04 04:21:34;;;;;;;60.77;37.47;;;;;;;;;;4989398;28;20513;-72
2021/07/04 04:23:59;;;;;;;69.55;40.13;;;;;;;;;;4991873;28;20516;-72
2021/07/04 04:26:25;;;;;;;65.88;39.17;;;;;;;;;;4991645;28;20176;-72
2021/07/04 04:28:50;;;;;;;63.95;39.28;;;;;;;;;;4991242;28;20596;-72
2021/07/04 04:31:15;;;;;;;69.50;39.35;;;;;;;;;;4992398;28;20210;-72
2021/07/04 04:33:40;;;;;;;70.05;41.70;;;;;;;;;;4989194;28;20189;-72
2021/07/04 04:36:05;;;;;;;69.77;41.67;;;;;;;;;;4974479;28;20176;-72
2021/07/04 04:38:31;;;;;;;70.57;40.53;;;;;;;;;;4988490;28;20480;-72
2021/07/04 04:40:56;;;;;;;67.32;42.17;;;;;;;;;;4992448;28;20223;-72
2021/07/04 04:43:21;;;;;;;68.85;42.42;;;;;;;;;;4990103;28;20238;-72
2021/07/04 04:45:46;;;;;;;64.82;41.42;;;;;;;;;;4991643;28;20183;-71
2021/07/04 04:48:11;;;;;;;64.18;40.17;;;;;;;;;;4989597;28;20184;-72
2021/07/04 04:50:37;;;;;;;74.43;41.33;;;;;;;;;;4992104;28;20227;-72
2021/07/04 04:53:02;;;;;;;75.68;44.33;;;;;;;;;;4988924;28;20449;-72
2021/07/04 04:55:27;;;;;;;68.80;42.40;;;;;;;;;;4991964;28;20182;-72
2021/07/04 04:57:52;;;;;;;67.45;43.70;;;;;;;;;;4988686;28;20211;-71
2021/07/04 05:00:17;;;;;;;58.40;38.47;;;;;;;;;;4991311;28;20261;-70
2021/07/04 05:02:43;;;;;;;54.80;37.40;;;;;;;;;;4967959;28;20453;-71
2021/07/04 05:05:08;;;;;;;52.75;38.45;;;;;;;;;;4990797;28;20174;-73
2021/07/04 05:07:33;;;;;;;50.17;35.85;;;;;;;;;;4988238;28;20180;-70
2021/07/04 05:09:59;;;;;;;48.50;34.63;;;;;;;;;;4988995;28;20645;-70
2021/07/04 05:12:24;;;;;;;44.35;34.33;;;;;;;;;;4973030;28;20627;-70
2021/07/04 05:14:49;;;;;;;45.60;33.57;;;;;;;;;;4990814;28;20266;-72
2021/07/04 05:17:16;;;;;;;48.38;34.25;;;;;;;;;;4989837;28;20804;-72
2021/07/04 05:19:42;;;;;;;44.33;33.25;;;;;;;;;;4989691;28;20180;-71
2021/07/04 05:22:07;;;;;;;48.17;35.22;;;;;;;;;;4989114;28;20221;-73
2021/07/04 05:24:32;;;;;;;42.67;32.15;;;;;;;;;;4988678;28;20178;-70
2021/07/04 05:26:57;;;;;;;48.90;34.75;;;;;;;;;;4972890;28;20672;-70
2021/07/04 05:29:22;;;;;;;48.70;35.17;;;;;;;;;;4998343;28;20186;-70
2021/07/04 05:31:48;;;;;;;45.70;32.10;;;;;;;;;;4985898;28;21226;-70
2021/07/04 05:34:13;;;;;;;44.58;32.25;;;;;;;;;;4987118;28;20192;-72
2021/07/04 05:36:38;;;;;;;46.45;32.28;;;;;;;;;;4963703;28;20238;-70
2021/07/04 05:39:03;;;;;;;42.38;30.73;;;;;;;;;;4978989;28;20641;-69
2021/07/04 05:41:29;;;;;;;46.28;32.53;;;;;;;;;;4973496;28;20218;-70
2021/07/04 05:43:54;;;;;;;44.28;32.78;;;;;;;;;;4977889;28;20223;-73
2021/07/04 05:46:19;;;;;;;40.35;31.77;;;;;;;;;;4972257;28;20559;-69
2021/07/04 05:48:46;;;;;;;46.45;33.80;;;;;;;;;;4971425;28;20191;-72
2021/07/04 05:51:12;;;;;;;42.30;31.33;;;;;;;;;;4970944;28;20315;-71
2021/07/04 05:53:37;;;;;;;42.63;29.77;;;;;;;;;;4973087;28;20536;-72
2021/07/04 05:56:02;;;;;;;42.80;31.15;;;;;;;;;;4972384;28;20184;-70
2021/07/04 05:58:28;;;;;;;39.92;29.02;;;;;;;;;;4980875;28;20237;-70
2021/07/04 06:00:53;;;;;;;39.47;29.73;;;;;;;;;;4989088;28;20208;-70
2021/07/04 06:03:19;;;;;;;39.00;28.70;;;;;;;;;;4976108;28;20429;-70
2021/07/04 06:05:44;;;;;;;34.97;27.52;;;;;;;;;;4972050;28;20370;-70
2021/07/04 06:08:09;;;;;;;35.17;27.75;;;;;;;;;;4970901;28;20267;-71
2021/07/04 06:10:35;;;;;;;38.08;28.92;;;;;;;;;;4972060;28;20199;-71
2021/07/04 06:13:01;;;;;;;32.85;26.00;;;;;;;;;;4975682;28;20183;-71
2021/07/04 06:15:26;;;;;;;31.63;25.15;;;;;;;;;;4970225;28;20902;-71
2021/07/04 06:17:52;;;;;;;30.83;25.20;;;;;;;;;;4972521;28;20227;-71
2021/07/04 06:22:50;;;;;;;29.63;25.42;;;;;;;;;;5006283;28;20504;-72
2021/07/04 06:25:16;;;;;;;29.42;24.45;;;;;;;;;;5014414;28;20170;-72
2021/07/04 06:27:41;;;;;;;27.33;22.25;;;;;;;;;;5003659;28;20191;-72
2021/07/04 06:30:10;;;;;;;25.20;21.60;;;;;;;;;;4999119;28;20186;-72
2021/07/04 06:32:36;;;;;;;22.60;20.20;;;;;;;;;;4996418;28;20298;-72
2021/07/04 06:35:02;;;;;;;24.17;19.20;;;;;;;;;;4995645;28;20190;-71
2021/07/04 06:37:27;;;;;;;24.00;20.58;;;;;;;;;;4999163;28;20218;-73
2021/07/04 06:39:52;;;;;;;21.37;18.57;;;;;;;;;;4998088;28;20205;-72
2021/07/04 06:42:18;;;;;;;19.75;17.65;;;;;;;;;;4997948;28;20463;-72
2021/07/04 06:44:43;;;;;;;20.52;18.27;;;;;;;;;;4996799;28;20218;-72
2021/07/04 06:47:08;;;;;;;20.13;18.02;;;;;;;;;;4995271;28;20190;-72
2021/07/04 06:49:33;;;;;;;22.83;19.40;;;;;;;;;;4996079;28;20187;-72
2021/07/04 06:51:59;;;;;;;20.08;17.98;;;;;;;;;;4993594;28;20255;-72
2021/07/04 06:54:24;;;;;;;21.07;18.87;;;;;;;;;;4981938;28;20237;-73
2021/07/04 06:56:49;;;;;;;19.87;17.87;;;;;;;;;;4993957;28;20972;-73
2021/07/04 06:59:14;;;;;;;20.87;17.80;;;;;;;;;;4998860;28;20531;-73
2021/07/04 07:01:39;;;;;;;19.90;17.77;;;;;;;;;;4980664;28;20452;-73
2021/07/04 07:04:05;;;;;;;20.05;18.05;;;;;;;;;;4997605;28;20656;-73
2021/07/04 07:06:30;;;;;;;21.07;17.50;;;;;;;;;;4976704;28;21732;-72
2021/07/04 07:08:55;;;;;;;20.98;18.88;;;;;;;;;;4994500;28;20454;-72
2021/07/04 07:11:20;;;;;;;19.35;17.35;;;;;;;;;;4979863;28;20771;-72
2021/07/04 07:13:46;;;;;;;18.07;16.23;;;;;;;;;;5000771;28;20258;-72
2021/07/04 07:16:12;;;;;;;18.23;16.30;;;;;;;;;;4995411;28;20941;-72
2021/07/04 07:18:37;;;;;;;17.38;15.68;;;;;;;;;;4994085;28;20281;-72
2021/07/04 07:21:02;;;;;;;17.42;15.05;;;;;;;;;;4993935;28;20776;-72
2021/07/04 07:23:27;;;;;;;15.60;14.00;;;;;;;;;;4982723;28;20186;-72
2021/07/04 07:25:53;;;;;;;14.68;13.25;;;;;;;;;;4994669;28;20199;-72
2021/07/04 07:28:19;;;;;;;15.93;14.32;;;;;;;;;;4997151;28;20210;-72
2021/07/04 07:30:44;;;;;;;15.93;14.32;;;;;;;;;;5009478;28;20226;-72
2021/07/04 07:33:09;;;;;;;16.03;14.53;;;;;;;;;;4995091;28;20187;-72
2021/07/04 07:35:34;;;;;;;14.77;13.37;;;;;;;;;;4993294;28;20523;-72
2021/07/04 07:38:02;;;;;;;13.05;11.77;;;;;;;;;;4997087;28;20468;-71
2021/07/04 07:40:29;;;;;;;12.63;11.32;;;;;;;;;;4996038;28;20309;-72
2021/07/04 07:42:55;;;;;;;11.73;10.52;;;;;;;;;;4995040;28;20217;-72
2021/07/04 07:45:20;;;;;;;11.03;10.03;;;;;;;;;;4994347;28;20646;-72
2021/07/04 07:47:45;;;;;;;12.85;10.32;;;;;;;;;;5002211;28;20432;-72
2021/07/04 07:50:10;;;;;;;9.37;8.50;;;;;;;;;;5000013;28;20292;-72
2021/07/04 07:52:36;;;;;;;13.75;12.48;;;;;;;;;;4974120;28;20976;-72
2021/07/04 07:55:01;;;;;;;12.18;10.98;;;;;;;;;;4994194;28;20182;-72
2021/07/04 07:57:26;;;;;;;12.43;11.20;;;;;;;;;;4994835;28;20214;-72
2021/07/04 07:59:51;;;;;;;11.15;10.07;;;;;;;;;;4994115;28;20175;-72
2021/07/04 08:02:17;;;;;;;11.27;9.93;;;;;;;;;;4995718;28;20286;-72
2021/07/04 08:04:42;;;;;;;10.93;10.00;;;;;;;;;;4997685;28;20436;-72
2021/07/04 08:07:07;;;;;;;9.20;8.30;;;;;;;;;;4994905;28;20195;-72
2021/07/04 08:09:32;;;;;;;9.55;8.63;;;;;;;;;;4999551;28;20190;-72
2021/07/04 08:11:57;;;;;;;12.40;11.07;;;;;;;;;;4994256;28;20298;-71
2021/07/04 08:14:23;;;;;;;9.93;9.03;;;;;;;;;;4997635;28;20285;-71
2021/07/04 08:16:48;;;;;;;11.03;9.70;;;;;;;;;;4993244;28;20439;-72
2021/07/04 08:19:13;;;;;;;10.15;9.13;;;;;;;;;;4993010;28;20470;-72
2021/07/04 08:21:39;;;;;;;9.77;8.83;;;;;;;;;;4995452;28;20258;-72
2021/07/04 08:24:04;;;;;;;9.02;8.18;;;;;;;;;;4981054;28;20179;-72
2021/07/04 08:26:30;;;;;;;9.40;8.60;;;;;;;;;;4994625;28;20241;-72
2021/07/04 08:28:55;;;;;;;5.57;5.07;;;;;;;;;;4996411;28;20187;-72
2021/07/04 08:31:22;;;;;;;7.87;5.40;;;;;;;;;;4998442;28;20483;-72
2021/07/04 08:33:47;;;;;;;5.57;5.07;;;;;;;;;;5007276;28;20503;-72
2021/07/04 08:36:12;;;;;;;6.00;5.50;;;;;;;;;;4997918;28;20253;-72
2021/07/04 08:38:38;;;;;;;3.47;3.17;;;;;;;;;;4999872;28;20198;-71
2021/07/04 08:41:03;;;;;;;2.23;1.77;;;;;;;;;;4996106;28;20199;-71
2021/07/04 08:43:30;;;;;;;2.03;1.70;;;;;;;;;;4998789;28;20429;-71
2021/07/04 08:45:56;;;;;;;2.33;2.13;;;;;;;;;;4998758;28;20663;-71
2021/07/04 08:48:21;;;;;;;3.03;2.30;;;;;;;;;;4999161;28;20187;-71
2021/07/04 08:50:47;;;;;;;2.60;2.40;;;;;;;;;;4995709;28;20205;-71
2021/07/04 08:53:12;;;;;;;2.70;2.47;;;;;;;;;;4995441;28;20567;-71
2021/07/04 08:55:37;;;;;;;4.23;3.10;;;;;;;;;;4979146;28;20432;-72
2021/07/04 08:58:02;;;;;;;2.90;2.70;;;;;;;;;;4995893;28;20518;-71
2021/07/04 09:00:27;;;;;;;4.00;3.70;;;;;;;;;;4994224;28;20519;-72
2021/07/04 09:02:53;;;;;;;5.17;4.03;;;;;;;;;;4996474;28;20478;-71
2021/07/04 09:05:19;;;;;;;5.07;4.57;;;;;;;;;;4994075;28;20787;-72
2021/07/04 09:07:45;;;;;;;5.22;4.63;;;;;;;;;;4976917;28;20174;-71
2021/07/04 09:10:15;;;;;;;5.25;4.72;;;;;;;;;;4994041;28;20175;-71
2021/07/04 09:12:40;;;;;;;6.43;5.80;;;;;;;;;;4996851;28;20183;-72
2021/07/04 09:15:24;;;;;;;5.60;5.10;;;;;;;;;;4992638;28;20694;-74
2021/07/04 09:17:52;;;;;;;5.28;4.45;;;;;;;;;;4994361;28;20298;-72
2021/07/04 09:20:32;;;;;;;5.40;4.20;;;;;;;;;;4993555;28;20519;-71
2021/07/04 09:22:58;;;;;;;5.55;5.00;;;;;;;;;;4998305;28;20723;-71
2021/07/04 09:25:45;;;;;;;4.78;4.40;;;;;;;;;;4993845;28;20183;-71
2021/07/04 09:28:11;;;;;;;5.65;4.50;;;;;;;;;;4995952;28;20210;-72
2021/07/04 09:30:44;;;;;;;5.30;4.80;;;;;;;;;;4999290;28;20210;-71
2021/07/04 09:33:14;;;;;;;4.97;4.57;;;;;;;;;;4993205;28;20191;-71
2021/07/04 09:35:40;;;;;;;4.55;4.15;;;;;;;;;;4976461;28;20244;-72
2021/07/04 09:38:13;;;;;;;5.40;4.53;;;;;;;;;;4984303;28;20675;-71
2021/07/04 09:40:39;;;;;;;6.00;4.82;;;;;;;;;;4994082;28;20234;-71
2021/07/04 09:43:06;;;;;;;5.15;4.75;;;;;;;;;;4996467;28;20367;-72
2021/07/04 09:45:48;;;;;;;5.30;4.88;;;;;;;;;;4998251;28;20918;-71
2021/07/04 09:48:15;;;;;;;5.15;4.72;;;;;;;;;;4996872;28;21212;-72
2021/07/04 09:50:42;;;;;;;5.80;5.30;;;;;;;;;;4992181;28;20204;-71
2021/07/04 09:53:07;;;;;;;5.22;4.78;;;;;;;;;;4995485;28;20183;-71
2021/07/04 09:55:32;;;;;;;5.95;5.00;;;;;;;;;;4976979;28;20726;-71
2021/07/04 09:57:59;;;;;;;4.30;3.97;;;;;;;;;;4993037;28;20199;-71
2021/07/04 10:00:35;;;;;;;4.20;3.80;;;;;;;;;;4993311;28;20470;-70
2021/07/04 10:03:03;;;;;;;4.93;4.00;;;;;;;;;;4995488;28;20682;-72
2021/07/04 10:05:28;;;;;;;4.20;3.70;;;;;;;;;;4976096;28;20198;-69
2021/07/04 10:07:54;;;;;;;4.00;3.70;;;;;;;;;;4996594;28;20183;-72
2021/07/04 10:10:19;;;;;;;4.07;3.70;;;;;;;;;;4997024;28;20251;-72
2021/07/04 10:12:44;;;;;;;3.65;3.17;;;;;;;;;;5001989;28;20195;-72
2021/07/04 10:15:09;;;;;;;4.23;3.73;;;;;;;;;;4994281;28;20336;-72
2021/07/04 10:17:35;;;;;;;4.43;3.88;;;;;;;;;;4992140;28;20221;-72
2021/07/04 10:20:01;;;;;;;3.70;3.40;;;;;;;;;;4994805;28;20273;-72
2021/07/04 10:22:31;;;;;;;3.20;2.85;;;;;;;;;;4997482;28;20206;-70
2021/07/04 10:24:56;;;;;;;3.63;3.33;;;;;;;;;;4993895;28;20196;-72
2021/07/04 10:27:21;;;;;;;3.20;2.90;;;;;;;;;;4994019;28;20190;-70
2021/07/04 10:29:49;;;;;;;3.10;2.70;;;;;;;;;;4997844;28;20201;-70
2021/07/04 10:32:14;;;;;;;4.13;2.90;;;;;;;;;;4987434;28;20303;-69
2021/07/04 10:34:41;;;;;;;3.23;2.70;;;;;;;;;;4994829;28;20185;-69
2021/07/04 10:37:06;;;;;;;2.20;2.00;;;;;;;;;;4992892;28;20573;-69
2021/07/04 10:39:33;;;;;;;2.90;2.70;;;;;;;;;;4998487;28;20171;-69
2021/07/04 10:41:59;;;;;;;3.40;3.03;;;;;;;;;;4994803;28;20774;-69
2021/07/04 10:44:35;;;;;;;3.13;2.83;;;;;;;;;;4993326;28;20183;-69
2021/07/04 10:47:01;;;;;;;3.72;2.67;;;;;;;;;;4996137;28;20187;-70
2021/07/04 10:49:30;;;;;;;3.38;3.08;;;;;;;;;;4992049;28;20188;-69
2021/07/04 10:52:06;;;;;;;2.88;2.58;;;;;;;;;;4993534;28;20280;-69
2021/07/04 10:54:38;;;;;;;2.50;2.30;;;;;;;;;;4994668;28;20968;-70
2021/07/04 10:57:04;;;;;;;2.38;2.15;;;;;;;;;;4993210;28;20252;-72
2021/07/04 10:59:29;;;;;;;4.00;2.15;;;;;;;;;;4973645;28;20266;-72
2021/07/04 11:01:57;;;;;;;2.97;2.40;;;;;;;;;;4992721;28;20195;-69
2021/07/04 11:04:31;;;;;;;2.72;2.53;;;;;;;;;;4981071;28;20183;-69
2021/07/04 11:06:58;;;;;;;3.38;2.60;;;;;;;;;;4992551;28;20182;-69
2021/07/04 11:09:23;;;;;;;2.70;2.50;;;;;;;;;;5005127;28;20175;-69
2021/07/04 11:11:48;;;;;;;3.35;3.05;;;;;;;;;;4996680;28;20221;-71
2021/07/04 11:14:14;;;;;;;3.45;3.08;;;;;;;;;;5000483;28;20186;-70
2021/07/04 11:16:59;;;;;;;3.00;2.80;;;;;;;;;;4995696;28;20326;-71
2021/07/04 11:19:24;;;;;;;3.50;3.20;;;;;;;;;;4999320;28;20210;-70
2021/07/04 11:21:51;;;;;;;3.92;3.63;;;;;;;;;;4979662;28;20218;-71
2021/07/04 11:24:17;;;;;;;4.75;4.10;;;;;;;;;;4983049;28;20195;-70
2021/07/04 11:27:02;;;;;;;4.38;3.97;;;;;;;;;;4994107;28;20179;-71
2021/07/04 11:29:28;;;;;;;3.47;3.17;;;;;;;;;;4995494;28;20190;-70
2021/07/04 11:31:53;;;;;;;4.10;3.80;;;;;;;;;;4994153;28;20261;-70
2021/07/04 11:34:18;;;;;;;3.30;3.10;;;;;;;;;;4993706;28;20432;-70
2021/07/04 11:36:46;;;;;;;3.60;3.30;;;;;;;;;;4994174;28;20921;-71
2021/07/04 11:39:14;;;;;;;3.63;3.28;;;;;;;;;;4996430;28;20209;-70
2021/07/04 11:41:49;;;;;;;3.30;3.00;;;;;;;;;;4995796;28;20207;-71
2021/07/04 11:44:16;;;;;;;4.10;2.63;;;;;;;;;;5001577;28;20278;-70
2021/07/04 11:46:45;;;;;;;2.88;2.67;;;;;;;;;;4997189;28;20183;-71
2021/07/04 11:49:16;;;;;;;3.08;2.60;;;;;;;;;;4995755;28;20591;-71
2021/07/04 11:51:48;;;;;;;2.88;2.67;;;;;;;;;;4996799;28;20321;-71
2021/07/04 11:54:17;;;;;;;2.88;2.67;;;;;;;;;;4994086;28;20183;-71
2021/07/04 11:56:44;;;;;;;3.35;3.05;;;;;;;;;;4994002;28;20648;-71
2021/07/04 11:59:14;;;;;;;2.90;2.60;;;;;;;;;;4974950;28;20180;-71
2021/07/04 12:01:40;;;;;;;2.40;2.20;;;;;;;;;;4991036;28;20610;-70
2021/07/04 12:04:05;;;;;;;3.15;2.85;;;;;;;;;;5000060;28;20179;-71
2021/07/04 12:06:30;;;;;;;2.70;2.50;;;;;;;;;;4999191;28;20171;-70
2021/07/04 12:09:05;;;;;;;4.07;2.40;;;;;;;;;;4995884;28;21859;-71
2021/07/04 12:11:41;;;;;;;2.60;2.20;;;;;;;;;;4994955;28;20562;-70
2021/07/04 12:14:25;;;;;;;2.50;2.30;;;;;;;;;;4997647;28;20194;-71
2021/07/04 12:16:52;;;;;;;2.92;2.72;;;;;;;;;;4992774;28;20198;-70
2021/07/04 12:19:44;;;;;;;2.88;2.42;;;;;;;;;;4996366;28;20198;-71
2021/07/04 12:22:10;;;;;;;4.45;2.63;;;;;;;;;;4990703;28;20353;-71
2021/07/04 12:24:41;;;;;;;2.42;2.22;;;;;;;;;;4993224;28;20234;-70
2021/07/04 12:27:07;;;;;;;3.10;2.80;;;;;;;;;;4993611;28;20198;-71
2021/07/04 12:29:52;;;;;;;2.45;2.25;;;;;;;;;;4979201;28;20257;-71
2021/07/04 12:32:17;;;;;;;2.53;2.33;;;;;;;;;;4993486;28;20218;-71
2021/07/04 12:34:42;;;;;;;2.25;2.05;;;;;;;;;;5000606;28;20175;-71
2021/07/04 12:37:07;;;;;;;1.70;1.60;;;;;;;;;;5005967;28;20692;-71
2021/07/04 12:39:34;;;;;;;2.67;2.47;;;;;;;;;;4991471;28;20815;-71
2021/07/04 12:41:59;;;;;;;1.98;1.88;;;;;;;;;;5009116;28;20191;-71
2021/07/04 12:44:24;;;;;;;2.88;2.00;;;;;;;;;;4994729;28;20565;-70
2021/07/04 12:46:50;;;;;;;2.80;1.65;;;;;;;;;;4993508;28;20790;-71
2021/07/04 12:49:15;;;;;;;3.00;2.67;;;;;;;;;;4994874;28;20210;-70
2021/07/04 12:51:44;;;;;;;2.40;2.20;;;;;;;;;;4994383;28;20203;-71
2021/07/04 12:54:23;;;;;;;2.45;2.13;;;;;;;;;;4997200;28;21715;-70
2021/07/04 12:56:50;;;;;;;2.40;2.20;;;;;;;;;;4993999;28;20183;-70
2021/07/04 12:59:25;;;;;;;1.60;1.50;;;;;;;;;;4995386;28;20277;-71
2021/07/04 13:01:58;;;;;;;2.33;2.13;;;;;;;;;;4978447;28;20786;-71
2021/07/04 13:04:23;;;;;;;2.10;1.80;;;;;;;;;;4997374;28;20549;-71
2021/07/04 13:09:26;;;;;;;2.17;1.95;;;;;;;;;;4993867;28;20207;-71
2021/07/04 13:11:57;;;;;;;4.25;1.65;;;;;;;;;;4996809;28;20208;-71
2021/07/04 13:14:31;;;;;;;1.80;1.70;;;;;;;;;;4996686;28;20265;-71
2021/07/04 13:16:56;;;;;;;1.40;1.30;;;;;;;;;;4997576;28;20179;-70
2021/07/04 13:19:23;;;;;;;1.85;1.75;;;;;;;;;;4996901;28;20595;-71
2021/07/04 13:21:49;;;;;;;2.08;1.50;;;;;;;;;;4993340;28;20225;-69
2021/07/04 13:24:20;;;;;;;1.65;1.52;;;;;;;;;;4994146;28;20178;-72
2021/07/04 13:26:46;;;;;;;2.15;1.83;;;;;;;;;;4993099;28;20182;-70
2021/07/04 13:29:16;;;;;;;1.98;1.85;;;;;;;;;;4976523;28;20183;-70
2021/07/04 13:31:41;;;;;;;2.53;2.30;;;;;;;;;;4992568;28;20257;-72
2021/07/04 13:34:20;;;;;;;2.17;1.70;;;;;;;;;;4996517;28;20183;-72
2021/07/04 13:36:54;;;;;;;1.58;1.00;;;;;;;;;;4991716;28;20516;-72
2021/07/04 13:39:19;;;;;;;2.47;1.63;;;;;;;;;;4999715;28;20628;-72
2021/07/04 13:41:45;;;;;;;3.80;1.70;;;;;;;;;;4995193;28;20293;-70
2021/07/04 13:44:10;;;;;;;1.95;1.85;;;;;;;;;;5000615;28;20459;-71
2021/07/04 13:46:36;;;;;;;4.33;3.73;;;;;;;;;;4996258;28;20636;-71
2021/07/04 13:49:03;;;;;;;6.68;5.15;;;;;;;;;;4993627;28;20983;-71
2021/07/04 13:51:28;;;;;;;9.13;6.10;;;;;;;;;;4993445;28;20208;-71
2021/07/04 13:53:53;;;;;;;8.37;6.87;;;;;;;;;;4993875;28;20235;-71
2021/07/04 13:56:18;;;;;;;8.63;6.93;;;;;;;;;;4992644;28;20187;-71
2021/07/04 13:58:43;;;;;;;8.93;7.13;;;;;;;;;;4996251;28;20455;-71
2021/07/04 14:01:09;;;;;;;7.47;6.77;;;;;;;;;;4978468;28;20211;-71
2021/07/04 14:03:34;;;;;;;8.85;6.30;;;;;;;;;;4979281;28;20440;-71
2021/07/04 14:05:59;;;;;;;6.33;5.50;;;;;;;;;;4991449;28;20247;-71
2021/07/04 14:08:24;;;;;;;11.37;7.40;;;;;;;;;;4996656;28;20444;-71
2021/07/04 14:10:49;;;;;;;8.68;6.05;;;;;;;;;;4990280;28;20558;-71
2021/07/04 14:13:15;;;;;;;9.27;7.03;;;;;;;;;;4995585;28;20216;-71
2021/07/04 14:15:40;;;;;;;6.65;6.00;;;;;;;;;;4990875;28;20183;-72
2021/07/04 14:18:05;;;;;;;9.00;8.07;;;;;;;;;;4994753;28;20223;-72
2021/07/04 14:20:32;;;;;;;6.22;5.43;;;;;;;;;;4993578;28;20184;-72
2021/07/04 14:22:57;;;;;;;6.72;4.80;;;;;;;;;;4994448;28;20214;-71
2021/07/04 14:25:23;;;;;;;6.40;5.53;;;;;;;;;;4992698;28;20171;-72
2021/07/04 14:27:49;;;;;;;8.70;5.75;;;;;;;;;;4994181;28;20645;-72
2021/07/04 14:30:16;;;;;;;5.60;5.10;;;;;;;;;;4991259;28;20183;-73